Terminal Aerodrome Forecast
Issued by NWS Burlington, VT

Home | Current Version | Previous Version | Text Only | Print | Product List | Glossary On
Versions: 1 2 3 4 5 6 7 8 9 10 11 12 13
000
FTUS41 KBTV 281100
TAFBTV
TAF
KBTV 281132Z 2812/2912 34010KT P6SM BKN025
     FM281600 33010G20KT P6SM BKN035
     FM290000 33004KT P6SM SKC=

USA.gov is the U.S. government's official web portal to all federal, state and local government web resources and services.